createdAt,value
2023-04-19T00:00:47.425Z,12.63
2023-04-19T00:01:47.413Z,12.65
2023-04-19T00:02:47.555Z,12.63
2023-04-19T00:03:47.515Z,12.61
2023-04-19T00:04:47.882Z,12.63
2023-04-19T00:05:47.383Z,12.68
2023-04-19T00:06:47.364Z,12.69
2023-04-19T00:07:47.319Z,12.62
2023-04-19T00:08:47.326Z,12.65
2023-04-19T00:09:47.309Z,12.61
2023-04-19T00:10:47.304Z,12.48
2023-04-19T00:11:47.287Z,12.51
2023-04-19T00:12:47.325Z,12.61
2023-04-19T00:13:47.282Z,12.62
2023-04-19T00:14:47.598Z,12.63
2023-04-19T00:15:47.337Z,12.63
2023-04-19T00:16:47.775Z,12.63
2023-04-19T00:17:47.370Z,12.63
2023-04-19T00:18:47.276Z,12.68
2023-04-19T00:19:47.276Z,12.66
2023-04-19T00:20:47.272Z,12.72
2023-04-19T00:21:47.192Z,12.68
2023-04-19T00:22:47.848Z,12.69
2023-04-19T00:23:48.350Z,12.68
2023-04-19T00:24:47.149Z,12.62
2023-04-19T00:25:47.202Z,12.54
2023-04-19T00:26:47.228Z,12.54
2023-04-19T00:27:47.166Z,12.54
2023-04-19T00:28:47.187Z,12.55
2023-04-19T00:29:47.107Z,12.66
2023-04-19T00:30:47.117Z,12.63
2023-04-19T00:31:47.107Z,12.58
2023-04-19T00:32:47.718Z,12.57
2023-04-19T00:33:47.074Z,12.55
2023-04-19T00:34:47.063Z,12.54
2023-04-19T00:35:47.151Z,12.55
2023-04-19T00:36:47.023Z,12.55
2023-04-19T00:37:48.207Z,12.55
2023-04-19T00:38:47.032Z,12.54
2023-04-19T00:39:47.033Z,12.57
2023-04-19T00:40:47.009Z,12.55
2023-04-19T00:41:47.000Z,12.54
2023-04-19T00:42:46.979Z,12.54
2023-04-19T00:43:46.966Z,12.50
2023-04-19T00:44:47.190Z,12.50
2023-04-19T00:45:46.975Z,12.44
2023-04-19T00:46:48.606Z,12.44
2023-04-19T00:47:46.974Z,12.43
2023-04-19T00:48:46.902Z,12.39
2023-04-19T00:49:46.878Z,12.36
2023-04-19T00:50:46.862Z,12.37
2023-04-19T00:51:46.899Z,12.43
2023-04-19T00:52:47.592Z,12.43
2023-04-19T00:53:47.047Z,12.40
2023-04-19T00:54:46.883Z,12.35
2023-04-19T00:55:46.831Z,12.39
2023-04-19T00:56:46.872Z,12.43
2023-04-19T00:57:47.284Z,12.40
2023-04-19T00:58:46.790Z,12.37
2023-04-19T00:59:46.767Z,12.39
2023-04-19T01:00:47.249Z,12.37
2023-04-19T01:01:46.796Z,12.37
2023-04-19T01:02:47.058Z,12.37
2023-04-19T01:03:46.859Z,12.37
2023-04-19T01:04:46.772Z,12.35
2023-04-19T01:05:46.709Z,12.36
2023-04-19T01:06:46.702Z,12.35
2023-04-19T01:07:47.355Z,12.33
2023-04-19T01:08:46.688Z,12.30
2023-04-19T01:09:46.666Z,12.28
2023-04-19T01:10:46.696Z,12.29
2023-04-19T01:11:47.054Z,12.28
2023-04-19T01:12:46.640Z,12.21
2023-04-19T01:13:46.633Z,12.25
2023-04-19T01:14:46.609Z,12.28
2023-04-19T01:15:47.794Z,12.17
2023-04-19T01:16:46.582Z,12.15
2023-04-19T01:17:46.631Z,12.18
2023-04-19T01:18:47.209Z,12.15
2023-04-19T01:19:46.578Z,12.18
2023-04-19T01:20:46.596Z,12.17
2023-04-19T01:21:46.563Z,12.20
2023-04-19T01:22:46.581Z,12.14
2023-04-19T01:23:46.515Z,12.12
2023-04-19T01:24:46.535Z,12.15
2023-04-19T01:25:46.514Z,12.10
2023-04-19T01:26:46.532Z,12.00
2023-04-19T01:27:46.536Z,11.96
2023-04-19T01:28:46.473Z,11.96
2023-04-19T01:29:46.474Z,12.07
2023-04-19T01:30:46.568Z,11.97
2023-04-19T01:31:46.470Z,11.95
2023-04-19T01:32:46.571Z,11.95
2023-04-19T01:33:46.390Z,11.95
2023-04-19T01:34:46.452Z,11.96
2023-04-19T01:35:46.447Z,11.95
2023-04-19T01:36:46.445Z,12.00
2023-04-19T01:37:46.387Z,12.08
2023-04-19T01:38:46.385Z,12.02
2023-04-19T01:39:46.381Z,12.03
2023-04-19T01:40:46.384Z,11.99
2023-04-19T01:41:46.341Z,11.97
2023-04-19T01:42:46.357Z,12.00
2023-04-19T01:43:46.353Z,12.07
2023-04-19T01:44:46.308Z,12.02
2023-04-19T01:45:46.360Z,11.96
2023-04-19T01:46:46.418Z,11.97
2023-04-19T01:47:46.345Z,12.02
2023-04-19T01:48:46.309Z,12.03
2023-04-19T01:49:46.227Z,12.02
2023-04-19T01:50:46.688Z,11.99
2023-04-19T01:51:46.209Z,11.95
2023-04-19T01:52:46.231Z,11.95
2023-04-19T01:53:46.183Z,11.95
2023-04-19T01:54:46.175Z,11.96
2023-04-19T01:55:46.218Z,11.97
2023-04-19T01:56:46.161Z,12.02
2023-04-19T01:57:46.156Z,12.05
2023-04-19T01:58:46.139Z,12.03
2023-04-19T01:59:46.109Z,12.03
2023-04-19T02:00:46.230Z,12.03
2023-04-19T02:01:46.189Z,12.05
2023-04-19T02:02:46.236Z,12.03
2023-04-19T02:03:46.339Z,11.99
2023-04-19T02:04:46.134Z,11.97
2023-04-19T02:05:46.079Z,12.00
2023-04-19T02:06:46.073Z,12.02
2023-04-19T02:07:46.049Z,12.08
2023-04-19T02:08:46.047Z,12.05
2023-04-19T02:09:46.046Z,12.07
2023-04-19T02:10:46.066Z,12.02
2023-04-19T02:11:46.005Z,12.02
2023-04-19T02:12:46.029Z,11.97
2023-04-19T02:13:45.997Z,11.96
2023-04-19T02:14:45.953Z,11.95
2023-04-19T02:15:45.930Z,11.95
2023-04-19T02:16:46.113Z,11.96
2023-04-19T02:17:46.057Z,12.00
2023-04-19T02:18:45.932Z,11.99
2023-04-19T02:19:45.910Z,11.97
2023-04-19T02:20:45.912Z,11.95
2023-04-19T02:21:45.943Z,11.97
2023-04-19T02:22:45.928Z,11.95
2023-04-19T02:23:45.890Z,11.97
2023-04-19T02:24:45.891Z,11.97
2023-04-19T02:25:45.877Z,11.96
2023-04-19T02:26:45.850Z,11.96
2023-04-19T02:27:45.896Z,11.95
2023-04-19T02:28:45.900Z,11.96
2023-04-19T02:29:45.871Z,11.99
2023-04-19T02:30:45.918Z,11.99
2023-04-19T02:31:45.907Z,11.97
2023-04-19T02:32:45.820Z,11.95
2023-04-19T02:33:45.823Z,12.00
2023-04-19T02:34:45.778Z,11.97
2023-04-19T02:35:45.785Z,12.00
2023-04-19T02:36:45.714Z,11.99
2023-04-19T02:37:45.842Z,11.97
2023-04-19T02:38:45.712Z,11.91
2023-04-19T02:39:45.687Z,11.93
2023-04-19T02:40:45.765Z,11.91
2023-04-19T02:41:45.708Z,11.86
2023-04-19T02:42:45.727Z,11.83
2023-04-19T02:43:45.737Z,11.85
2023-04-19T02:44:45.652Z,11.88
2023-04-19T02:45:45.671Z,11.89
2023-04-19T02:46:45.623Z,11.78
2023-04-19T02:47:45.712Z,11.76
2023-04-19T02:48:45.604Z,11.73
2023-04-19T02:49:45.611Z,11.73
2023-04-19T02:50:45.620Z,11.76
2023-04-19T02:51:45.546Z,11.78
2023-04-19T02:52:45.609Z,11.80
2023-04-19T02:53:45.549Z,11.77
2023-04-19T02:54:45.511Z,11.77
2023-04-19T02:55:45.543Z,11.83
2023-04-19T02:56:45.568Z,11.81
2023-04-19T02:57:45.496Z,11.77
2023-04-19T02:58:45.514Z,11.76
2023-04-19T02:59:45.736Z,11.74
2023-04-19T03:00:45.557Z,11.70
2023-04-19T03:01:45.534Z,11.68
2023-04-19T03:02:45.725Z,11.70
2023-04-19T03:03:45.544Z,11.65
2023-04-19T03:04:45.428Z,11.65
2023-04-19T03:05:45.469Z,11.63
2023-04-19T03:06:45.455Z,11.65
2023-04-19T03:07:45.421Z,11.56
2023-04-19T03:08:45.376Z,11.58
2023-04-19T03:09:45.442Z,11.63
2023-04-19T03:10:45.339Z,11.65
2023-04-19T03:11:45.390Z,11.67
2023-04-19T03:12:45.400Z,11.65
2023-04-19T03:13:45.325Z,11.60
2023-04-19T03:14:45.315Z,11.60
2023-04-19T03:15:45.371Z,11.67
2023-04-19T03:16:45.299Z,11.62
2023-04-19T03:17:45.336Z,11.62
2023-04-19T03:18:47.279Z,11.62
2023-04-19T03:19:45.273Z,11.53
2023-04-19T03:20:45.229Z,11.48
2023-04-19T03:21:45.444Z,11.44
2023-04-19T03:22:45.260Z,11.48
2023-04-19T03:23:45.313Z,11.44
2023-04-19T03:24:45.224Z,11.49
2023-04-19T03:25:45.231Z,11.43
2023-04-19T03:26:45.186Z,11.40
2023-04-19T03:27:45.389Z,11.45
2023-04-19T03:28:45.203Z,11.45
2023-04-19T03:29:47.200Z,11.44
2023-04-19T03:30:45.151Z,11.40
2023-04-19T03:31:45.262Z,11.37
2023-04-19T03:32:45.198Z,11.37
2023-04-19T03:33:45.090Z,11.37
2023-04-19T03:34:45.092Z,11.34
2023-04-19T03:35:45.128Z,11.33
2023-04-19T03:36:45.043Z,11.22
2023-04-19T03:37:45.110Z,11.27
2023-04-19T03:38:45.056Z,11.26
2023-04-19T03:39:45.078Z,11.33
2023-04-19T03:40:45.201Z,11.30
2023-04-19T03:41:45.051Z,11.34
2023-04-19T03:42:45.143Z,11.37
2023-04-19T03:43:45.010Z,11.40
2023-04-19T03:44:45.016Z,11.34
2023-04-19T03:45:44.996Z,11.33
2023-04-19T03:46:45.112Z,11.30
2023-04-19T03:47:45.027Z,11.27
2023-04-19T03:48:44.998Z,11.22
2023-04-19T03:49:44.847Z,11.20
2023-04-19T03:50:44.851Z,11.23
2023-04-19T03:51:44.836Z,11.26
2023-04-19T03:52:44.820Z,11.26
2023-04-19T03:53:44.852Z,11.27
2023-04-19T03:54:44.832Z,11.34
2023-04-19T03:55:44.933Z,11.33
2023-04-19T03:56:44.802Z,11.31
2023-04-19T03:57:44.796Z,11.22
2023-04-19T03:58:44.736Z,11.25
2023-04-19T03:59:44.728Z,11.30
2023-04-19T04:00:44.805Z,11.26
2023-04-19T04:01:44.823Z,11.26
2023-04-19T04:02:45.054Z,11.30
2023-04-19T04:03:44.863Z,11.25
2023-04-19T04:04:44.819Z,11.25
2023-04-19T04:05:44.684Z,11.23
2023-04-19T04:06:44.713Z,11.23
2023-04-19T04:07:44.660Z,11.22
2023-04-19T04:08:44.666Z,11.19
2023-04-19T04:09:44.623Z,11.15
2023-04-19T04:10:44.606Z,11.15
2023-04-19T04:11:44.592Z,11.15
2023-04-19T04:12:44.579Z,11.12
2023-04-19T04:13:44.575Z,11.15
2023-04-19T04:14:44.634Z,11.12
2023-04-19T04:15:44.549Z,11.13
2023-04-19T04:16:44.627Z,11.12
2023-04-19T04:17:44.666Z,11.18
2023-04-19T04:18:44.539Z,11.18
2023-04-19T04:19:44.501Z,11.18
2023-04-19T04:20:44.521Z,11.10
2023-04-19T04:21:44.511Z,11.10
2023-04-19T04:22:44.474Z,11.10
2023-04-19T04:23:44.474Z,11.15
2023-04-19T04:24:44.496Z,11.10
2023-04-19T04:25:44.484Z,11.12
2023-04-19T04:26:44.456Z,11.10
2023-04-19T04:27:44.537Z,11.07
2023-04-19T04:28:44.484Z,11.02
2023-04-19T04:29:44.425Z,11.04
2023-04-19T04:30:44.389Z,11.01
2023-04-19T04:31:44.478Z,11.04
2023-04-19T04:32:44.529Z,11.07
2023-04-19T04:33:44.443Z,11.12
2023-04-19T04:34:44.427Z,11.08
2023-04-19T04:35:44.433Z,11.02
2023-04-19T04:36:44.424Z,11.02
2023-04-19T04:37:44.405Z,10.94
2023-04-19T04:38:44.462Z,10.90
2023-04-19T04:39:44.368Z,10.92
2023-04-19T04:40:44.336Z,10.92
2023-04-19T04:41:44.274Z,10.94
2023-04-19T04:42:44.354Z,10.94
2023-04-19T04:43:44.291Z,11.01
2023-04-19T04:44:44.271Z,11.01
2023-04-19T04:45:44.354Z,11.07
2023-04-19T04:46:44.268Z,11.10
2023-04-19T04:47:44.326Z,11.12
2023-04-19T04:48:44.223Z,11.08
2023-04-19T04:49:44.209Z,11.04
2023-04-19T04:50:44.257Z,10.95
2023-04-19T04:51:44.212Z,10.87
2023-04-19T04:52:44.182Z,10.86
2023-04-19T04:53:44.175Z,10.89
2023-04-19T04:54:44.336Z,10.98
2023-04-19T04:55:44.251Z,10.94
2023-04-19T04:56:44.239Z,10.83
2023-04-19T04:57:44.160Z,10.82
2023-04-19T04:58:44.134Z,10.79
2023-04-19T04:59:44.167Z,10.79
2023-04-19T05:00:44.326Z,10.80
2023-04-19T05:01:44.129Z,10.80
2023-04-19T05:02:44.158Z,10.82
2023-04-19T05:03:44.085Z,10.87
2023-04-19T05:04:44.110Z,10.83
2023-04-19T05:05:45.246Z,10.65
2023-04-19T05:06:44.022Z,10.61
2023-04-19T05:07:44.041Z,10.64
2023-04-19T05:08:43.992Z,10.62
2023-04-19T05:09:44.113Z,10.64
2023-04-19T05:10:43.991Z,10.68
2023-04-19T05:11:44.087Z,10.77
2023-04-19T05:12:43.995Z,10.80
2023-04-19T05:13:44.855Z,10.55
2023-04-19T05:14:43.924Z,10.53
2023-04-19T05:15:43.991Z,10.68
2023-04-19T05:16:43.916Z,10.62
2023-04-19T05:17:43.912Z,10.57
2023-04-19T05:18:43.888Z,10.64
2023-04-19T05:19:43.955Z,10.62
2023-04-19T05:20:43.843Z,10.65
2023-04-19T05:21:43.858Z,10.69
2023-04-19T05:22:43.823Z,10.76
2023-04-19T05:23:43.825Z,10.77
2023-04-19T05:24:43.808Z,10.58
2023-04-19T05:25:43.874Z,10.58
2023-04-19T05:26:43.798Z,10.68
2023-04-19T05:27:43.789Z,10.61
2023-04-19T05:28:43.762Z,10.61
2023-04-19T05:29:43.827Z,10.72
2023-04-19T05:30:43.777Z,10.76
2023-04-19T05:31:43.853Z,10.87
2023-04-19T05:32:43.970Z,10.90
2023-04-19T05:33:43.810Z,10.94
2023-04-19T05:34:43.734Z,10.94
2023-04-19T05:35:43.720Z,10.98
2023-04-19T05:36:43.820Z,11.01
2023-04-19T05:37:43.777Z,11.01
2023-04-19T05:38:43.694Z,10.86
2023-04-19T05:39:44.661Z,10.92
2023-04-19T05:40:43.740Z,11.02
2023-04-19T05:41:43.728Z,11.07
2023-04-19T05:42:43.683Z,11.12
2023-04-19T05:43:43.641Z,11.19
2023-04-19T05:44:43.645Z,11.25
2023-04-19T05:45:43.692Z,11.30
2023-04-19T05:46:43.646Z,11.33
2023-04-19T05:47:43.627Z,11.34
2023-04-19T05:48:43.576Z,11.37
2023-04-19T05:49:43.574Z,11.43
2023-04-19T05:50:43.532Z,11.49
2023-04-19T05:51:43.530Z,11.55
2023-04-19T05:52:43.576Z,11.53
2023-04-19T05:53:43.575Z,11.56
2023-04-19T05:54:43.501Z,11.52
2023-04-19T05:55:43.504Z,11.58
2023-04-19T05:56:43.563Z,11.44
2023-04-19T05:57:43.588Z,11.44
2023-04-19T05:58:43.539Z,11.30
2023-04-19T05:59:43.432Z,11.08
2023-04-19T06:00:43.411Z,11.18
2023-04-19T06:01:43.522Z,11.33
2023-04-19T06:02:43.526Z,11.35
2023-04-19T06:03:43.623Z,11.37
2023-04-19T06:04:43.864Z,11.38
2023-04-19T06:05:43.460Z,11.49
2023-04-19T06:06:43.527Z,11.59
2023-04-19T06:07:50.707Z,11.40
2023-04-19T06:08:44.454Z,11.43
2023-04-19T06:09:43.400Z,11.53
2023-04-19T06:11:50.801Z,11.78
2023-04-19T06:12:44.278Z,11.77
2023-04-19T06:13:43.258Z,11.71
2023-04-19T06:14:43.277Z,11.80
2023-04-19T06:15:43.421Z,11.95
2023-04-19T06:16:43.276Z,12.02
2023-04-19T06:17:43.302Z,11.96
2023-04-19T06:18:43.350Z,12.03
2023-04-19T06:19:43.321Z,12.10
2023-04-19T06:20:43.269Z,12.29
2023-04-19T06:21:43.218Z,12.61
2023-04-19T06:22:43.194Z,12.84
2023-04-19T06:23:43.166Z,13.02
2023-04-19T06:24:43.166Z,13.17
2023-04-19T06:25:43.143Z,13.19
2023-04-19T06:26:43.112Z,13.23
2023-04-19T06:27:43.173Z,13.21
2023-04-19T06:28:43.112Z,13.20
2023-04-19T06:29:43.102Z,13.23
2023-04-19T06:30:43.116Z,13.24
2023-04-19T06:31:43.100Z,13.12
2023-04-19T06:32:43.207Z,13.13
2023-04-19T06:33:43.093Z,13.17
2023-04-19T06:34:43.126Z,13.26
2023-04-19T06:35:43.064Z,13.31
2023-04-19T06:36:43.068Z,13.33
2023-04-19T06:37:43.088Z,13.33
2023-04-19T06:38:43.083Z,13.37
2023-04-19T06:39:42.980Z,13.30
2023-04-19T06:40:42.969Z,13.26
2023-04-19T06:41:43.022Z,13.26
2023-04-19T06:42:42.995Z,13.28
2023-04-19T06:43:42.926Z,13.36
2023-04-19T06:44:42.925Z,13.31
2023-04-19T06:45:42.975Z,13.21
2023-04-19T06:46:42.982Z,13.20
2023-04-19T06:47:43.132Z,13.20
2023-04-19T06:48:42.925Z,13.01
2023-04-19T06:49:42.888Z,12.72
2023-04-19T06:50:42.860Z,12.90
2023-04-19T06:51:42.905Z,13.13
2023-04-19T06:52:42.886Z,13.27
2023-04-19T06:53:43.078Z,13.27
2023-04-19T06:54:42.879Z,13.40
2023-04-19T06:55:42.907Z,13.46
2023-04-19T06:56:42.886Z,13.30
2023-04-19T06:57:42.796Z,13.31
2023-04-19T06:58:42.876Z,13.26
2023-04-19T06:59:42.799Z,13.21
2023-04-19T07:00:42.821Z,13.26
2023-04-19T07:01:42.799Z,13.39
2023-04-19T07:02:42.855Z,13.47
2023-04-19T07:03:42.841Z,13.49
2023-04-19T07:04:42.871Z,13.43
2023-04-19T07:05:42.762Z,13.45
2023-04-19T07:06:42.727Z,13.30
2023-04-19T07:07:42.747Z,13.26
2023-04-19T07:08:49.702Z,13.17
2023-04-19T07:09:43.643Z,13.17
2023-04-19T07:10:42.649Z,13.30
2023-04-19T07:11:42.693Z,12.99
2023-04-19T07:12:42.779Z,13.09
2023-04-19T07:13:42.713Z,12.98
2023-04-19T07:14:42.609Z,12.95
2023-04-19T07:15:42.625Z,12.95
2023-04-19T07:16:42.594Z,13.19
2023-04-19T07:17:42.574Z,13.45
2023-04-19T07:18:42.547Z,13.61
2023-04-19T07:19:42.548Z,13.40
2023-04-19T07:20:42.606Z,13.58
2023-04-19T07:21:42.574Z,13.79
2023-04-19T07:22:42.562Z,13.73
2023-04-19T07:23:42.537Z,13.76
2023-04-19T07:24:42.508Z,13.95
2023-04-19T07:25:42.478Z,14.07
2023-04-19T07:26:42.466Z,14.23
2023-04-19T07:27:42.503Z,14.43
2023-04-19T07:28:42.578Z,14.59
2023-04-19T07:29:42.441Z,14.73
2023-04-19T07:30:42.411Z,14.93
2023-04-19T07:31:42.482Z,14.97
2023-04-19T07:32:42.512Z,15.17
2023-04-19T07:33:42.394Z,15.39
2023-04-19T07:34:42.385Z,15.67
2023-04-19T07:35:42.384Z,15.66
2023-04-19T07:36:42.401Z,15.80
2023-04-19T07:37:42.601Z,15.99
2023-04-19T07:38:42.372Z,16.10
2023-04-19T07:39:42.330Z,16.26
2023-04-19T07:40:42.347Z,16.40
2023-04-19T07:41:42.313Z,16.40
2023-04-19T07:42:42.359Z,16.46
2023-04-19T07:43:42.330Z,16.50
2023-04-19T07:44:42.314Z,16.62
2023-04-19T07:45:42.326Z,16.77
2023-04-19T07:46:42.385Z,16.98
2023-04-19T07:47:42.346Z,17.16
2023-04-19T07:48:42.220Z,17.30
2023-04-19T07:49:42.223Z,17.24
2023-04-19T07:50:42.271Z,17.31
2023-04-19T07:51:42.209Z,17.22
2023-04-19T07:52:42.230Z,17.20
2023-04-19T07:53:42.165Z,17.23
2023-04-19T07:54:42.457Z,17.46
2023-04-19T07:55:42.146Z,17.69
2023-04-19T07:56:42.321Z,17.68
2023-04-19T07:57:42.245Z,17.60
2023-04-19T07:58:42.339Z,17.69
2023-04-19T07:59:42.128Z,17.71
2023-04-19T08:00:42.152Z,17.87
2023-04-19T08:01:42.317Z,18.00
2023-04-19T08:02:42.199Z,18.02
2023-04-19T08:03:42.280Z,18.24
2023-04-19T08:04:42.439Z,18.43
2023-04-19T08:05:42.144Z,18.57
2023-04-19T08:06:42.039Z,18.67
2023-04-19T08:07:42.052Z,18.76
2023-04-19T08:08:42.058Z,18.63
2023-04-19T08:09:42.060Z,18.60
2023-04-19T08:10:41.992Z,18.67
2023-04-19T08:11:42.001Z,18.81
2023-04-19T08:12:53.598Z,18.70
2023-04-19T08:13:48.603Z,18.73
2023-04-19T08:14:56.222Z,18.94
2023-04-19T08:17:19.265Z,19.01
2023-04-19T08:17:43.387Z,19.19
2023-04-19T08:18:41.908Z,19.27
2023-04-19T08:19:41.885Z,19.29
2023-04-19T08:20:42.073Z,19.12
2023-04-19T08:21:41.977Z,18.64
2023-04-19T08:22:41.938Z,18.76
2023-04-19T08:23:48.360Z,19.07
2023-04-19T08:24:42.881Z,19.22
2023-04-19T08:25:41.829Z,19.19
2023-04-19T08:26:41.806Z,19.34
2023-04-19T08:27:41.811Z,19.16
2023-04-19T08:28:41.791Z,19.26
2023-04-19T08:29:41.871Z,19.47
2023-04-19T08:30:41.769Z,19.29
2023-04-19T08:31:41.825Z,19.47
2023-04-19T08:32:41.831Z,19.71
2023-04-19T08:33:41.761Z,19.90
2023-04-19T08:34:41.713Z,19.85
2023-04-19T08:35:41.802Z,19.85
2023-04-19T08:36:51.597Z,19.78
2023-04-19T08:37:42.779Z,19.78
2023-04-19T08:38:44.540Z,19.97
2023-04-19T08:39:41.671Z,20.15
2023-04-19T08:40:41.709Z,20.18
2023-04-19T08:41:41.635Z,20.26
2023-04-19T08:42:41.650Z,20.29
2023-04-19T08:43:41.827Z,20.48
2023-04-19T08:44:59.089Z,20.70
2023-04-19T08:45:42.696Z,20.82
2023-04-19T08:46:41.643Z,20.83
2023-04-19T08:48:41.674Z,20.95
2023-04-19T08:49:43.285Z,21.01
2023-04-19T08:51:41.513Z,20.85
2023-04-19T08:52:51.484Z,20.89
2023-04-19T08:53:42.539Z,21.05
2023-04-19T08:54:41.487Z,21.22
2023-04-19T08:55:53.986Z,21.17
2023-04-19T08:56:42.486Z,21.01
2023-04-19T08:57:41.509Z,21.03
2023-04-19T08:58:57.926Z,21.07
2023-04-19T08:59:42.540Z,21.03
2023-04-19T09:00:41.492Z,20.74
2023-04-19T09:01:43.624Z,20.70
2023-04-19T09:02:41.592Z,20.60
2023-04-19T09:03:55.480Z,20.64
2023-04-19T09:04:42.519Z,20.40
2023-04-19T09:05:41.695Z,20.34
2023-04-19T09:06:41.806Z,20.36
2023-04-19T09:07:41.394Z,20.44
2023-04-19T09:08:41.366Z,20.52
2023-04-19T09:09:51.987Z,20.52
2023-04-19T09:10:42.380Z,20.56
2023-04-19T09:11:41.302Z,20.48
2023-04-19T09:12:41.317Z,20.34
2023-04-19T09:13:41.274Z,20.19
2023-04-19T09:14:45.045Z,20.26
2023-04-19T09:15:42.286Z,20.46
2023-04-19T09:16:41.265Z,20.53
2023-04-19T09:17:41.393Z,20.67
2023-04-19T09:18:53.391Z,20.77
2023-04-19T09:19:42.293Z,20.86
2023-04-19T09:20:41.218Z,21.07
2023-04-19T09:21:41.216Z,21.07
2023-04-19T09:22:41.227Z,20.98
2023-04-19T09:23:41.183Z,21.01
2023-04-19T09:26:05.929Z,21.22
2023-04-19T09:26:42.134Z,21.22
2023-04-19T09:27:41.140Z,21.23
2023-04-19T09:28:41.156Z,21.45
2023-04-19T09:29:41.104Z,21.58
2023-04-19T09:30:54.866Z,21.66
2023-04-19T09:31:51.320Z,21.70
2023-04-19T09:32:42.157Z,21.80
2023-04-19T09:33:41.104Z,21.97
2023-04-19T09:34:41.368Z,22.03
2023-04-19T09:35:41.053Z,21.89
2023-04-19T09:36:41.037Z,21.88
2023-04-19T09:38:01.815Z,22.00
2023-04-19T09:38:42.038Z,21.99
2023-04-19T09:39:41.019Z,22.06
2023-04-19T09:40:41.042Z,22.19
2023-04-19T09:41:42.531Z,22.22
2023-04-19T09:42:55.471Z,22.10
2023-04-19T09:45:20.770Z,21.75
2023-04-19T09:45:41.932Z,21.84
2023-04-19T09:46:40.989Z,21.89
2023-04-19T09:47:40.978Z,21.70
2023-04-19T09:48:40.932Z,21.80
2023-04-19T09:49:48.426Z,21.65
2023-04-19T09:50:53.607Z,21.48
2023-04-19T09:51:41.927Z,21.48
2023-04-19T09:52:40.876Z,21.40
2023-04-19T09:53:40.846Z,21.35
2023-04-19T09:54:40.828Z,21.29
2023-04-19T09:55:52.406Z,21.41
2023-04-19T09:56:41.800Z,21.51
2023-04-19T09:57:40.794Z,21.65
2023-04-19T09:58:50.772Z,21.85
2023-04-19T09:59:41.785Z,21.88
2023-04-19T10:00:50.061Z,21.50
2023-04-19T10:01:41.820Z,21.10
2023-04-19T10:02:40.987Z,21.19
2023-04-19T10:03:40.904Z,21.30
2023-04-19T10:05:02.842Z,21.45
2023-04-19T10:05:41.848Z,21.40
2023-04-19T10:07:41.722Z,21.47
2023-04-19T10:08:40.712Z,21.53
2023-04-19T10:09:51.639Z,21.78
2023-04-19T10:10:42.896Z,21.85
2023-04-19T10:11:41.507Z,21.97
2023-04-19T10:12:59.157Z,21.92
2023-04-19T10:13:41.702Z,21.92
2023-04-19T10:14:40.619Z,22.00
2023-04-19T10:15:49.998Z,21.97
2023-04-19T10:16:41.634Z,21.94
2023-04-19T10:17:40.591Z,21.97
2023-04-19T10:18:40.583Z,22.03
2023-04-19T10:19:40.562Z,21.72
2023-04-19T10:20:40.566Z,21.63
2023-04-19T10:21:40.515Z,21.75
2023-04-19T10:22:40.504Z,21.83
2023-04-19T10:23:40.512Z,21.94
2023-04-19T10:24:41.849Z,21.70
2023-04-19T10:25:40.525Z,21.53
2023-04-19T10:26:40.517Z,21.38
2023-04-19T10:27:41.097Z,21.20
2023-04-19T10:28:40.457Z,21.11
2023-04-19T10:29:40.515Z,20.93
2023-04-19T10:30:40.486Z,20.70
2023-04-19T10:31:40.476Z,20.46
2023-04-19T10:32:40.451Z,20.27
2023-04-19T10:33:40.392Z,19.90
2023-04-19T10:34:40.396Z,19.74
2023-04-19T10:35:40.419Z,19.64
2023-04-19T10:36:40.434Z,19.64
2023-04-19T10:37:40.369Z,19.67
2023-04-19T10:38:40.472Z,19.63
2023-04-19T10:39:40.370Z,19.63
2023-04-19T10:40:40.410Z,19.67
2023-04-19T10:41:40.340Z,19.67
2023-04-19T10:42:40.471Z,19.66
2023-04-19T10:43:40.302Z,19.74
2023-04-19T10:44:40.271Z,19.67
2023-04-19T10:45:40.316Z,19.77
2023-04-19T10:46:40.465Z,19.81
2023-04-19T10:47:40.327Z,19.57
2023-04-19T10:48:40.278Z,19.35
2023-04-19T10:49:40.261Z,19.39
2023-04-19T10:50:40.262Z,19.41
2023-04-19T10:51:40.217Z,19.49
2023-04-19T10:52:40.284Z,19.59
2023-04-19T10:53:40.189Z,19.78
2023-04-19T10:54:40.192Z,19.94
2023-04-19T10:55:40.178Z,19.99
2023-04-19T10:56:40.199Z,20.19
2023-04-19T10:57:40.132Z,20.49
2023-04-19T10:58:40.120Z,20.60
2023-04-19T10:59:40.163Z,20.63
2023-04-19T11:00:40.128Z,20.58
2023-04-19T11:01:40.665Z,20.63
2023-04-19T11:02:40.320Z,20.71
2023-04-19T11:03:40.268Z,21.00
2023-04-19T11:04:40.164Z,21.45
2023-04-19T11:05:40.045Z,22.00
2023-04-19T11:06:40.168Z,22.37
2023-04-19T11:07:40.049Z,22.61
2023-04-19T11:08:40.045Z,22.81
2023-04-19T11:09:40.116Z,23.08
2023-04-19T11:10:40.095Z,23.45
2023-04-19T11:11:40.048Z,23.76
2023-04-19T11:12:39.998Z,24.06
2023-04-19T11:13:39.951Z,24.18
2023-04-19T11:14:40.211Z,24.47
2023-04-19T11:15:39.972Z,24.48
2023-04-19T11:16:45.440Z,24.61
2023-04-19T11:17:40.963Z,24.56
2023-04-19T11:18:39.916Z,24.50
2023-04-19T11:19:39.910Z,24.84
2023-04-19T11:20:39.901Z,24.89
2023-04-19T11:21:39.930Z,24.94
2023-04-19T11:22:39.828Z,25.00
2023-04-19T11:23:39.835Z,24.82
2023-04-19T11:24:39.844Z,24.84
2023-04-19T11:25:39.839Z,25.11
2023-04-19T11:26:39.850Z,25.14
2023-04-19T11:27:39.871Z,25.24
2023-04-19T11:28:39.814Z,25.24
2023-04-19T11:29:39.873Z,25.37
2023-04-19T11:30:39.808Z,25.31
2023-04-19T11:31:39.818Z,25.48
2023-04-19T11:32:39.787Z,25.46
2023-04-19T11:33:39.732Z,25.07
2023-04-19T11:34:39.716Z,25.16
2023-04-19T11:35:39.696Z,25.21
2023-04-19T11:36:39.694Z,25.33
2023-04-19T11:37:39.748Z,25.55
2023-04-19T11:38:39.693Z,25.61
2023-04-19T11:39:39.669Z,25.56
2023-04-19T11:40:39.727Z,25.55
2023-04-19T11:41:39.790Z,25.51
2023-04-19T11:42:39.634Z,25.24
2023-04-19T11:43:39.675Z,25.18
2023-04-19T11:44:39.616Z,25.15
2023-04-19T11:45:40.367Z,25.41
2023-04-19T11:46:39.796Z,25.51
2023-04-19T11:47:39.680Z,25.68
2023-04-19T11:48:39.578Z,25.98
2023-04-19T11:49:39.667Z,26.23
2023-04-19T11:50:39.657Z,26.19
2023-04-19T11:51:39.583Z,26.31
2023-04-19T11:52:39.591Z,26.53
2023-04-19T11:53:39.575Z,26.63
2023-04-19T11:54:39.492Z,26.53
2023-04-19T11:55:39.548Z,26.27
2023-04-19T11:56:39.487Z,26.13
2023-04-19T11:57:41.508Z,25.95
2023-04-19T11:58:39.482Z,26.15
2023-04-19T11:59:39.480Z,26.42
2023-04-19T12:00:39.463Z,26.85
2023-04-19T12:01:39.552Z,27.18
2023-04-19T12:02:39.529Z,27.48
2023-04-19T12:03:39.614Z,27.66
2023-04-19T12:04:39.546Z,27.97
2023-04-19T12:05:39.603Z,28.50
2023-04-19T12:06:39.367Z,28.93
2023-04-19T12:07:39.368Z,29.32
2023-04-19T12:08:39.380Z,29.80
2023-04-19T12:09:39.345Z,30.14
2023-04-19T12:10:39.331Z,30.26
2023-04-19T12:11:39.616Z,30.43
2023-04-19T12:12:39.333Z,30.43
2023-04-19T12:13:39.306Z,30.51
2023-04-19T12:14:39.301Z,30.38
2023-04-19T12:15:39.285Z,30.59
2023-04-19T12:16:39.291Z,30.52
2023-04-19T12:17:44.786Z,30.36
2023-04-19T12:18:40.256Z,30.13
2023-04-19T12:19:39.235Z,30.08
2023-04-19T12:20:39.239Z,30.32
2023-04-19T12:21:39.209Z,30.36
2023-04-19T12:22:39.208Z,30.24
2023-04-19T12:23:39.330Z,30.36
2023-04-19T12:24:39.225Z,30.36
2023-04-19T12:25:39.211Z,30.31
2023-04-19T12:26:39.299Z,30.18
2023-04-19T12:27:39.173Z,29.80
2023-04-19T12:28:39.159Z,29.61
2023-04-19T12:29:39.292Z,29.69
2023-04-19T12:30:39.128Z,29.67
2023-04-19T12:31:39.133Z,29.57
2023-04-19T12:32:39.191Z,29.59
2023-04-19T12:33:39.127Z,29.76
2023-04-19T12:34:39.089Z,29.47
2023-04-19T12:35:39.095Z,29.37
2023-04-19T12:36:39.063Z,29.53
2023-04-19T12:37:39.072Z,29.46
2023-04-19T12:38:39.078Z,29.34
2023-04-19T12:39:39.031Z,29.40
2023-04-19T12:40:39.060Z,29.43
2023-04-19T12:41:39.030Z,29.67
2023-04-19T12:42:39.066Z,29.81
2023-04-19T12:43:39.011Z,30.06
2023-04-19T12:44:39.129Z,30.02
2023-04-19T12:45:39.014Z,29.98
2023-04-19T12:46:39.065Z,30.14
2023-04-19T12:47:39.035Z,30.26
2023-04-19T12:48:38.922Z,30.03
2023-04-19T12:49:38.973Z,29.96
2023-04-19T12:50:38.955Z,29.94
2023-04-19T12:51:38.963Z,29.87
2023-04-19T12:52:38.893Z,29.87
2023-04-19T12:53:38.898Z,29.99
2023-04-19T12:54:38.868Z,30.26
2023-04-19T12:55:38.982Z,30.40
2023-04-19T12:56:38.859Z,30.62
2023-04-19T12:57:39.071Z,30.86
2023-04-19T12:58:38.868Z,30.85
2023-04-19T12:59:38.866Z,30.69